createdAt,value
2018-04-22T00:00:39.315Z,100513.99
2018-04-22T00:01:45.860Z,100517.69
2018-04-22T00:02:51.433Z,100514.34
2018-04-22T00:03:57.199Z,100512.63
2018-04-22T00:05:02.980Z,100513.20
2018-04-22T00:06:08.742Z,100512.73
2018-04-22T00:07:15.286Z,100513.30
2018-04-22T00:08:21.171Z,100512.26
2018-04-22T00:09:27.012Z,100512.84
2018-04-22T00:10:32.778Z,100513.39
2018-04-22T00:11:38.546Z,100509.99
2018-04-22T00:12:44.326Z,100508.85
2018-04-22T00:13:50.681Z,100515.05
2018-04-22T00:14:57.226Z,100507.58
2018-04-22T00:16:02.984Z,100503.56
2018-04-22T00:17:08.767Z,100508.34
2018-04-22T00:18:14.631Z,100508.01
2018-04-22T00:19:20.419Z,100503.28
2018-04-22T00:20:26.190Z,100506.83
2018-04-22T00:21:31.961Z,100501.64
2018-04-22T00:22:37.738Z,100500.88
2018-04-22T00:23:44.295Z,100497.42
2018-04-22T00:24:50.851Z,100501.02
2018-04-22T00:25:57.384Z,100495.41
2018-04-22T00:27:03.146Z,100496.43
2018-04-22T00:28:09.675Z,100490.52
2018-04-22T00:29:15.479Z,100496.48
2018-04-22T00:30:21.271Z,100486.94
2018-04-22T00:31:27.036Z,100491.47
2018-04-22T00:32:33.371Z,100488.08
2018-04-22T00:33:39.168Z,100490.85
2018-04-22T00:34:44.943Z,100483.59
2018-04-22T00:35:50.503Z,100480.60
2018-04-22T00:36:57.041Z,100488.20
2018-04-22T00:38:02.888Z,100481.31
2018-04-22T00:39:08.668Z,100480.13
2018-04-22T00:40:15.295Z,100478.85
2018-04-22T00:41:21.084Z,100483.81
2018-04-22T00:42:26.858Z,100481.22
2018-04-22T00:43:32.644Z,100481.34
2018-04-22T00:44:39.384Z,100479.60
2018-04-22T00:45:45.142Z,100478.55
2018-04-22T00:46:50.960Z,100477.28
2018-04-22T00:47:56.723Z,100477.90
2018-04-22T00:49:03.263Z,100474.83
2018-04-22T00:50:09.027Z,100474.11
2018-04-22T00:51:15.554Z,100467.65
2018-04-22T00:52:21.120Z,100473.11
2018-04-22T00:53:26.658Z,100473.95
2018-04-22T00:54:33.200Z,100475.38
2018-04-22T00:55:38.972Z,100474.05
2018-04-22T00:56:45.510Z,100470.69
2018-04-22T00:57:52.063Z,100469.09
2018-04-22T00:58:57.852Z,100467.94
2018-04-22T01:00:03.618Z,100465.69
2018-04-22T01:01:09.411Z,100466.30
2018-04-22T01:02:15.191Z,100466.77
2018-04-22T01:03:20.970Z,100472.52
2018-04-22T01:04:26.739Z,100467.28
2018-04-22T01:05:32.522Z,100471.67
2018-04-22T01:06:38.292Z,100465.96
2018-04-22T01:07:44.069Z,100467.33
2018-04-22T01:08:49.839Z,100469.12
2018-04-22T01:09:55.646Z,100466.98
2018-04-22T01:11:02.188Z,100466.09
2018-04-22T01:12:07.717Z,100469.62
2018-04-22T01:13:13.505Z,100473.59
2018-04-22T01:14:20.036Z,100469.68
2018-04-22T01:15:25.807Z,100471.14
2018-04-22T01:16:32.347Z,100473.78
2018-04-22T01:17:38.884Z,100471.61
2018-04-22T01:18:46.229Z,100471.74
2018-04-22T01:19:51.986Z,100463.95
2018-04-22T01:20:57.755Z,100465.33
2018-04-22T01:22:03.517Z,100470.73
2018-04-22T01:23:10.047Z,100468.19
2018-04-22T01:24:15.854Z,100468.77
2018-04-22T01:25:21.639Z,100472.86
2018-04-22T01:26:28.191Z,100472.02
2018-04-22T01:27:33.968Z,100466.07
2018-04-22T01:28:40.499Z,100464.75
2018-04-22T01:29:46.300Z,100465.34
2018-04-22T01:30:52.075Z,100461.01
2018-04-22T01:31:57.853Z,100466.29
2018-04-22T01:33:04.383Z,100461.91
2018-04-22T01:34:10.162Z,100459.44
2018-04-22T01:35:16.719Z,100460.33
2018-04-22T01:36:23.254Z,100457.31
2018-04-22T01:37:29.026Z,100460.05
2018-04-22T01:38:34.818Z,100461.84
2018-04-22T01:39:40.603Z,100462.73
2018-04-22T01:40:47.165Z,100461.89
2018-04-22T01:41:53.707Z,100464.66
2018-04-22T01:42:59.467Z,100462.95
2018-04-22T01:44:06.016Z,100463.90
2018-04-22T01:45:12.574Z,100465.64
2018-04-22T01:46:19.134Z,100462.67
2018-04-22T01:47:25.686Z,100460.03
2018-04-22T01:48:32.224Z,100458.36
2018-04-22T01:49:37.996Z,100459.78
2018-04-22T01:50:44.535Z,100461.57
2018-04-22T01:51:51.101Z,100456.80
2018-04-22T01:52:56.875Z,100460.39
2018-04-22T01:54:03.871Z,100456.93
2018-04-22T01:55:09.645Z,100460.14
2018-04-22T01:56:15.421Z,100458.91
2018-04-22T01:57:21.991Z,100455.55
2018-04-22T01:58:27.778Z,100457.80
2018-04-22T01:59:33.541Z,100452.62
2018-04-22T02:00:39.306Z,100459.81
2018-04-22T02:01:45.839Z,100450.24
2018-04-22T02:02:51.642Z,100453.45
2018-04-22T02:03:57.435Z,100449.66
2018-04-22T02:05:03.231Z,100450.27
2018-04-22T02:06:08.773Z,100449.49
2018-04-22T02:07:14.544Z,100452.23
2018-04-22T02:08:21.612Z,100446.14
2018-04-22T02:09:27.167Z,100449.68
2018-04-22T02:10:32.932Z,100443.45
2018-04-22T02:11:38.703Z,100444.30
2018-04-22T02:12:44.476Z,100448.36
2018-04-22T02:13:51.831Z,100447.46
2018-04-22T02:14:57.619Z,100442.61
2018-04-22T02:16:03.387Z,100443.50
2018-04-22T02:17:09.167Z,100435.16
2018-04-22T02:18:14.944Z,100436.48
2018-04-22T02:19:21.503Z,100440.86
2018-04-22T02:20:28.039Z,100440.86
2018-04-22T02:21:35.319Z,100441.76
2018-04-22T02:22:41.120Z,100438.39
2018-04-22T02:23:46.891Z,100443.30
2018-04-22T02:24:52.682Z,100443.00
2018-04-22T02:25:59.218Z,100436.95
2018-04-22T02:27:04.656Z,100442.80
2018-04-22T02:28:10.454Z,100442.42
2018-04-22T02:29:16.396Z,100439.83
2018-04-22T02:30:22.191Z,100442.04
2018-04-22T02:31:28.728Z,100434.63
2018-04-22T02:32:34.508Z,100431.23
2018-04-22T02:33:41.035Z,100434.90
2018-04-22T02:34:46.803Z,100439.07
2018-04-22T02:35:53.367Z,100438.27
2018-04-22T02:36:59.903Z,100433.45
2018-04-22T02:38:05.678Z,100436.60
2018-04-22T02:39:11.478Z,100435.84
2018-04-22T02:40:17.243Z,100438.02
2018-04-22T02:41:23.824Z,100435.42
2018-04-22T02:42:30.355Z,100434.62
2018-04-22T02:43:36.939Z,100432.91
2018-04-22T02:44:42.874Z,100427.80
2018-04-22T02:45:49.416Z,100429.59
2018-04-22T02:46:55.208Z,100428.37
2018-04-22T02:48:00.969Z,100428.41
2018-04-22T02:49:06.779Z,100431.13
2018-04-22T02:50:12.555Z,100427.73
2018-04-22T02:51:17.883Z,100432.25
2018-04-22T02:52:23.675Z,100425.73
2018-04-22T02:53:30.218Z,100420.16
2018-04-22T02:54:35.994Z,100424.64
2018-04-22T02:55:42.518Z,100422.47
2018-04-22T02:56:48.299Z,100422.05
2018-04-22T02:57:54.078Z,100419.41
2018-04-22T02:59:00.943Z,100419.02
2018-04-22T03:00:06.701Z,100420.37
2018-04-22T03:01:12.480Z,100418.20
2018-04-22T03:02:19.043Z,100421.31
2018-04-22T03:03:25.599Z,100420.89
2018-04-22T03:04:32.135Z,100420.47
2018-04-22T03:05:37.906Z,100419.66
2018-04-22T03:06:43.688Z,100417.06
2018-04-22T03:07:49.459Z,100422.84
2018-04-22T03:08:55.555Z,100423.36
2018-04-22T03:10:01.328Z,100418.17
2018-04-22T03:11:07.094Z,100422.22
2018-04-22T03:12:12.859Z,100423.19
2018-04-22T03:13:18.640Z,100414.05
2018-04-22T03:14:24.439Z,100420.31
2018-04-22T03:15:30.971Z,100421.67
2018-04-22T03:16:36.738Z,100409.50
2018-04-22T03:17:42.298Z,100408.65
2018-04-22T03:18:48.080Z,100409.16
2018-04-22T03:19:53.863Z,100411.00
2018-04-22T03:21:00.417Z,100411.16
2018-04-22T03:22:06.948Z,100404.25
2018-04-22T03:23:12.795Z,100402.08
2018-04-22T03:24:18.563Z,100401.73
2018-04-22T03:25:25.148Z,100406.28
2018-04-22T03:26:30.923Z,100400.20
2018-04-22T03:27:36.697Z,100397.57
2018-04-22T03:28:42.473Z,100397.22
2018-04-22T03:29:48.239Z,100401.22
2018-04-22T03:30:54.035Z,100391.19
2018-04-22T03:32:00.574Z,100397.36
2018-04-22T03:33:06.339Z,100400.04
2018-04-22T03:34:12.882Z,100398.77
2018-04-22T03:35:18.655Z,100403.22
2018-04-22T03:36:24.451Z,100401.09
2018-04-22T03:37:30.247Z,100401.56
2018-04-22T03:38:36.028Z,100397.78
2018-04-22T03:39:41.833Z,100401.34
2018-04-22T03:40:47.658Z,100395.58
2018-04-22T03:41:54.441Z,100396.55
2018-04-22T03:43:00.260Z,100385.66
2018-04-22T03:44:06.821Z,100382.64
2018-04-22T03:45:13.408Z,100388.08
2018-04-22T03:46:19.180Z,100388.17
2018-04-22T03:47:24.974Z,100390.94
2018-04-22T03:48:31.512Z,100391.09
2018-04-22T03:49:37.283Z,100385.49
2018-04-22T03:50:43.076Z,100393.02
2018-04-22T03:51:48.848Z,100389.23
2018-04-22T03:52:55.413Z,100396.75
2018-04-22T03:54:01.960Z,100386.77
2018-04-22T03:55:07.727Z,100386.92
2018-04-22T03:56:13.506Z,100389.19
2018-04-22T03:57:19.275Z,100395.44
2018-04-22T03:58:25.081Z,100390.75
2018-04-22T03:59:30.857Z,100392.53
2018-04-22T04:00:36.650Z,100394.70
2018-04-22T04:01:42.427Z,100390.33
2018-04-22T04:02:48.388Z,100389.86
2018-04-22T04:03:54.182Z,100393.34
2018-04-22T04:05:00.051Z,100391.55
2018-04-22T04:06:05.817Z,100390.23
2018-04-22T04:07:11.587Z,100387.69
2018-04-22T04:08:18.118Z,100387.27
2018-04-22T04:09:23.915Z,100387.27
2018-04-22T04:10:29.688Z,100390.33
2018-04-22T04:11:35.539Z,100389.05
2018-04-22T04:12:41.311Z,100384.16
2018-04-22T04:13:47.847Z,100387.73
2018-04-22T04:14:53.650Z,100383.36
2018-04-22T04:15:59.419Z,100383.78
2018-04-22T04:17:05.215Z,100382.89
2018-04-22T04:20:30.787Z,100384.84
2018-04-22T04:21:53.517Z,100380.92
2018-04-22T04:22:59.059Z,100387.13
2018-04-22T04:26:31.574Z,100380.20
2018-04-22T04:27:49.740Z,100377.31
2018-04-22T04:28:55.520Z,100373.78
2018-04-22T04:30:01.293Z,100380.33
2018-04-22T04:31:07.513Z,100381.99
2018-04-22T04:32:13.282Z,100382.80
2018-04-22T04:33:19.082Z,100382.28
2018-04-22T04:34:24.866Z,100380.92
2018-04-22T04:35:31.398Z,100381.73
2018-04-22T04:36:37.989Z,100382.55
2018-04-22T04:37:44.536Z,100387.27
2018-04-22T04:38:51.079Z,100386.80
2018-04-22T04:39:56.863Z,100385.39
2018-04-22T04:41:03.404Z,100387.91
2018-04-22T04:42:09.964Z,100376.43
2018-04-22T04:43:15.738Z,100385.99
2018-04-22T04:44:21.503Z,100382.42
2018-04-22T04:45:27.275Z,100382.73
2018-04-22T04:46:33.054Z,100383.06
2018-04-22T04:47:39.627Z,100384.64
2018-04-22T04:48:45.395Z,100391.05
2018-04-22T04:49:51.175Z,100386.05
2018-04-22T04:50:56.964Z,100388.98
2018-04-22T04:52:02.735Z,100385.75
2018-04-22T04:53:08.534Z,100389.57
2018-04-22T04:54:14.082Z,100389.95
2018-04-22T04:55:20.056Z,100386.68
2018-04-22T04:56:25.863Z,100387.44
2018-04-22T04:57:31.647Z,100386.34
2018-04-22T04:58:37.447Z,100389.57
2018-04-22T04:59:42.991Z,100389.27
2018-04-22T05:00:48.780Z,100388.66
2018-04-22T05:01:54.555Z,100385.29
2018-04-22T05:03:00.328Z,100389.45
2018-04-22T05:04:05.855Z,100387.03
2018-04-22T05:05:11.627Z,100387.32
2018-04-22T05:06:17.405Z,100389.87
2018-04-22T05:07:23.939Z,100383.63
2018-04-22T05:08:29.721Z,100386.97
2018-04-22T05:09:35.526Z,100383.27
2018-04-22T05:10:42.820Z,100393.17
2018-04-22T05:11:49.383Z,100388.20
2018-04-22T05:12:55.912Z,100388.95
2018-04-22T05:14:01.770Z,100385.67
2018-04-22T05:15:07.567Z,100388.05
2018-04-22T05:16:13.343Z,100391.45
2018-04-22T05:17:19.109Z,100385.48
2018-04-22T05:18:25.414Z,100389.30
2018-04-22T05:19:31.195Z,100384.28
2018-04-22T05:20:36.999Z,100386.31
2018-04-22T05:21:42.761Z,100388.69
2018-04-22T05:22:48.550Z,100387.27
2018-04-22T05:23:55.082Z,100388.33
2018-04-22T05:25:00.847Z,100389.85
2018-04-22T05:26:07.404Z,100389.19
2018-04-22T05:27:13.948Z,100388.22
2018-04-22T05:28:20.483Z,100384.34
2018-04-22T05:29:26.250Z,100383.70
2018-04-22T05:30:32.999Z,100380.83
2018-04-22T05:31:38.798Z,100379.75
2018-04-22T05:32:44.581Z,100385.33
2018-04-22T05:33:50.433Z,100383.39
2018-04-22T05:34:56.210Z,100379.25
2018-04-22T05:36:02.743Z,100381.00
2018-04-22T05:37:08.562Z,100376.84
2018-04-22T05:38:14.360Z,100373.56
2018-04-22T05:39:20.130Z,100374.31
2018-04-22T05:40:25.907Z,100375.84
2018-04-22T05:41:31.700Z,100375.03
2018-04-22T05:42:37.543Z,100375.08
2018-04-22T05:43:43.522Z,100375.78
2018-04-22T05:44:49.325Z,100372.86
2018-04-22T05:45:55.094Z,100373.66
2018-04-22T05:47:00.916Z,100374.42
2018-04-22T05:48:06.753Z,100377.86
2018-04-22T05:49:12.534Z,100372.02
2018-04-22T05:50:18.385Z,100377.16
2018-04-22T05:51:24.253Z,100374.05
2018-04-22T05:52:30.792Z,100376.89
2018-04-22T05:53:36.631Z,100377.22
2018-04-22T05:54:42.421Z,100380.33
2018-04-22T05:55:48.191Z,100376.42
2018-04-22T05:56:53.958Z,100370.66
2018-04-22T05:57:59.822Z,100374.00
2018-04-22T05:59:06.417Z,100370.61
2018-04-22T06:00:12.298Z,100369.48
2018-04-22T06:01:18.077Z,100371.28
2018-04-22T06:02:24.701Z,100366.33
2018-04-22T06:03:30.470Z,100373.18
2018-04-22T06:04:37.041Z,100367.73
2018-04-22T06:05:43.579Z,100374.20
2018-04-22T06:06:50.860Z,100376.75
2018-04-22T06:07:56.295Z,100375.91
2018-04-22T06:09:02.055Z,100373.84
2018-04-22T06:10:08.822Z,100374.65
2018-04-22T06:11:15.452Z,100375.17
2018-04-22T06:12:21.219Z,100375.44
2018-04-22T06:13:27.765Z,100377.58
2018-04-22T06:14:33.529Z,100374.88
2018-04-22T06:15:40.102Z,100371.37
2018-04-22T06:16:45.869Z,100370.56
2018-04-22T06:17:51.649Z,100372.30
2018-04-22T06:18:58.932Z,100369.17
2018-04-22T06:20:04.720Z,100369.69
2018-04-22T06:21:10.865Z,100367.13
2018-04-22T06:22:18.918Z,100363.42
2018-04-22T06:23:26.837Z,100364.51
2018-04-22T06:24:33.945Z,100359.48
2018-04-22T06:25:40.822Z,100358.77
2018-04-22T06:26:47.869Z,100359.52
2018-04-22T06:27:53.887Z,100356.10
2018-04-22T06:29:00.066Z,100362.85
2018-04-22T06:30:05.909Z,100354.36
2018-04-22T06:31:11.958Z,100352.80
2018-04-22T06:32:18.028Z,100350.45
2018-04-22T06:33:24.169Z,100349.16
2018-04-22T06:34:30.212Z,100347.33
2018-04-22T06:35:36.130Z,100349.20
2018-04-22T06:36:42.906Z,100346.08
2018-04-22T06:37:48.947Z,100347.24
2018-04-22T06:38:55.102Z,100342.79
2018-04-22T06:40:01.264Z,100341.25
2018-04-22T06:41:07.220Z,100341.92
2018-04-22T06:42:13.259Z,100334.27
2018-04-22T06:43:19.206Z,100336.23
2018-04-22T06:44:25.766Z,100336.94
2018-04-22T06:45:31.818Z,100331.23
2018-04-22T06:46:38.680Z,100332.97
2018-04-22T06:47:44.903Z,100325.31
2018-04-22T06:48:51.764Z,100325.06
2018-04-22T06:49:58.632Z,100326.22
2018-04-22T06:51:04.779Z,100328.44
2018-04-22T06:52:10.664Z,100317.27
2018-04-22T06:53:16.637Z,100317.67
2018-04-22T06:54:24.222Z,100318.28
2018-04-22T06:55:31.269Z,100310.82
2018-04-22T06:56:37.265Z,100311.09
2018-04-22T06:57:44.082Z,100308.94
2018-04-22T06:58:50.155Z,100313.86
2018-04-22T06:59:56.250Z,100309.91
2018-04-22T07:01:03.068Z,100314.69
2018-04-22T07:02:08.988Z,100309.31
2018-04-22T07:03:15.144Z,100311.83
2018-04-22T07:04:21.282Z,100309.60
2018-04-22T07:05:28.060Z,100309.85
2018-04-22T07:06:34.617Z,100312.63
2018-04-22T07:07:40.668Z,100307.87
2018-04-22T07:08:46.766Z,100312.75
2018-04-22T07:09:53.890Z,100313.55
2018-04-22T07:10:59.933Z,100316.50
2018-04-22T07:12:06.134Z,100318.59
2018-04-22T07:13:12.133Z,100318.55
2018-04-22T07:14:18.126Z,100321.42
2018-04-22T07:15:24.225Z,100321.77
2018-04-22T07:16:30.286Z,100318.98
2018-04-22T07:17:36.358Z,100319.48
2018-04-22T07:18:42.406Z,100324.19
2018-04-22T07:19:49.878Z,100318.47
2018-04-22T07:20:55.907Z,100321.82
2018-04-22T07:22:02.686Z,100314.31
2018-04-22T07:23:08.719Z,100320.98
2018-04-22T07:24:14.820Z,100312.61
2018-04-22T07:25:21.023Z,100312.88
2018-04-22T07:26:27.173Z,100306.11
2018-04-22T07:27:33.221Z,100308.81
2018-04-22T07:28:39.377Z,100307.09
2018-04-22T07:29:45.634Z,100306.25
2018-04-22T07:30:51.690Z,100306.39
2018-04-22T07:31:57.721Z,100308.83
2018-04-22T07:33:03.872Z,100313.58
2018-04-22T07:34:09.809Z,100315.30
2018-04-22T07:35:16.290Z,100315.43
2018-04-22T07:36:22.230Z,100315.80
2018-04-22T07:37:28.276Z,100314.42
2018-04-22T07:38:34.167Z,100313.33
2018-04-22T07:39:40.059Z,100312.40
2018-04-22T07:40:45.922Z,100315.89
2018-04-22T07:41:51.907Z,100310.05
2018-04-22T07:42:57.687Z,100320.56
2018-04-22T07:44:03.463Z,100317.54
2018-04-22T07:45:11.807Z,100315.53
2018-04-22T07:46:17.637Z,100319.10
2018-04-22T07:47:23.527Z,100318.61
2018-04-22T07:48:30.231Z,100314.93
2018-04-22T07:49:37.549Z,100317.97
2018-04-22T07:50:44.105Z,100314.76
2018-04-22T07:51:50.755Z,100316.96
2018-04-22T07:52:56.733Z,100317.48
2018-04-22T07:54:02.788Z,100314.66
2018-04-22T07:55:08.767Z,100311.31
2018-04-22T07:56:14.984Z,100309.84
2018-04-22T07:57:20.976Z,100304.86
2018-04-22T07:58:27.685Z,100304.55
2018-04-22T07:59:33.726Z,100308.70
2018-04-22T08:00:39.758Z,100307.18
2018-04-22T08:01:45.740Z,100299.88
2018-04-22T08:02:51.588Z,100298.61
2018-04-22T08:03:57.412Z,100297.44
2018-04-22T08:05:03.015Z,100296.02
2018-04-22T08:06:08.783Z,100294.63
2018-04-22T08:07:15.529Z,100292.04
2018-04-22T08:08:22.889Z,100291.63
2018-04-22T08:09:28.689Z,100291.52
2018-04-22T08:10:34.455Z,100299.64
2018-04-22T08:11:40.227Z,100296.61
2018-04-22T08:12:46.023Z,100298.25
2018-04-22T08:13:51.805Z,100300.88
2018-04-22T08:14:57.397Z,100293.34
2018-04-22T08:16:03.190Z,100301.47
2018-04-22T08:17:09.321Z,100304.45
2018-04-22T08:18:15.399Z,100304.11
2018-04-22T08:19:21.165Z,100302.39
2018-04-22T08:20:26.965Z,100303.59
2018-04-22T08:21:32.735Z,100300.06
2018-04-22T08:22:39.321Z,100310.63
2018-04-22T08:23:45.102Z,100306.86
2018-04-22T08:24:51.077Z,100304.92
2018-04-22T08:25:57.720Z,100310.93
2018-04-22T08:27:03.513Z,100303.95
2018-04-22T08:28:09.287Z,100301.92
2018-04-22T08:29:15.070Z,100309.50
2018-04-22T08:30:21.697Z,100307.62
2018-04-22T08:31:28.878Z,100302.11
2018-04-22T08:32:34.755Z,100296.55
2018-04-22T08:33:40.571Z,100296.45
2018-04-22T08:34:46.161Z,100292.08
2018-04-22T08:35:52.464Z,100291.11
2018-04-22T08:36:58.510Z,100289.58
2018-04-22T08:38:04.533Z,100293.58
2018-04-22T08:39:10.481Z,100290.31
2018-04-22T08:40:16.542Z,100292.64
2018-04-22T08:41:23.340Z,100283.38
2018-04-22T08:42:29.994Z,100283.70
2018-04-22T08:43:36.647Z,100278.77
2018-04-22T08:44:42.443Z,100276.88
2018-04-22T08:45:49.107Z,100282.84
2018-04-22T08:46:55.460Z,100275.40
2018-04-22T08:48:02.505Z,100275.16
2018-04-22T08:49:09.897Z,100276.16
2018-04-22T08:50:16.627Z,100275.50
2018-04-22T08:51:22.602Z,100276.98
2018-04-22T08:52:29.236Z,100275.39
2018-04-22T08:53:34.854Z,100275.34
2018-04-22T08:54:40.661Z,100274.63
2018-04-22T08:55:46.640Z,100275.66
2018-04-22T08:56:53.428Z,100267.87
2018-04-22T08:58:00.183Z,100267.39
2018-04-22T08:59:07.392Z,100272.63
2018-04-22T09:00:13.266Z,100263.60
2018-04-22T09:01:19.169Z,100269.25
2018-04-22T09:02:27.552Z,100264.09
2018-04-22T09:03:33.395Z,100260.71
2018-04-22T09:04:39.382Z,100260.82
2018-04-22T09:05:46.161Z,100258.86
2018-04-22T09:06:52.685Z,100257.89
2018-04-22T09:07:59.286Z,100262.08
2018-04-22T09:09:04.939Z,100256.42
2018-04-22T09:10:10.992Z,100256.08
2018-04-22T09:11:17.552Z,100257.51
2018-04-22T09:12:24.069Z,100261.70
2018-04-22T09:13:30.779Z,100258.34
2018-04-22T09:14:36.727Z,100250.45
2018-04-22T09:15:45.282Z,100252.28
2018-04-22T09:16:51.939Z,100254.84
2018-04-22T09:17:58.621Z,100252.66
2018-04-22T09:19:04.426Z,100251.11
2018-04-22T09:20:12.799Z,100251.41
2018-04-22T09:21:18.883Z,100244.50
2018-04-22T09:22:25.573Z,100250.02
2018-04-22T09:23:33.355Z,100249.03
2018-04-22T09:24:39.582Z,100248.00
2018-04-22T09:25:46.355Z,100246.69
2018-04-22T09:26:54.679Z,100244.93
2018-04-22T09:28:00.698Z,100249.69
2018-04-22T09:29:07.726Z,100248.03
2018-04-22T09:30:13.873Z,100250.09
2018-04-22T09:31:20.545Z,100248.72
2018-04-22T09:32:26.851Z,100244.95
2018-04-22T09:33:32.853Z,100243.73
2018-04-22T09:34:39.583Z,100252.77
2018-04-22T09:35:45.517Z,100253.02
2018-04-22T09:36:52.569Z,100242.95
2018-04-22T09:37:58.514Z,100245.73
2018-04-22T09:39:04.571Z,100244.77
2018-04-22T09:40:10.441Z,100246.61
2018-04-22T09:41:16.337Z,100236.52
2018-04-22T09:42:22.242Z,100245.67
2018-04-22T09:43:28.019Z,100245.31
2018-04-22T09:44:35.492Z,100239.12
2018-04-22T09:45:43.056Z,100245.84
2018-04-22T09:46:49.836Z,100236.28
2018-04-22T09:47:56.503Z,100239.01
2018-04-22T09:49:02.133Z,100240.48
2018-04-22T09:50:08.806Z,100243.98
2018-04-22T09:51:15.666Z,100231.62
2018-04-22T09:52:22.547Z,100232.72
2018-04-22T09:53:30.127Z,100228.09
2018-04-22T09:54:37.005Z,100220.16
2018-04-22T09:55:42.892Z,100224.59
2018-04-22T09:56:48.881Z,100217.38
2018-04-22T09:57:55.591Z,100213.53
2018-04-22T09:59:01.731Z,100211.45
2018-04-22T10:00:09.592Z,100212.42
2018-04-22T10:01:20.509Z,100209.38
2018-04-22T10:02:31.720Z,100207.99
2018-04-22T10:03:40.986Z,100206.52
2018-04-22T10:04:47.485Z,100210.31
2018-04-22T10:05:54.136Z,100209.38
2018-04-22T10:07:00.122Z,100210.68
2018-04-22T10:08:05.847Z,100203.05
2018-04-22T10:09:11.845Z,100208.23
2018-04-22T10:10:17.770Z,100206.64
2018-04-22T10:11:24.289Z,100210.94
2018-04-22T10:12:30.127Z,100202.25
2018-04-22T10:13:35.973Z,100204.28
2018-04-22T10:14:42.017Z,100199.87
2018-04-22T10:15:48.716Z,100195.44
2018-04-22T10:16:54.539Z,100198.75
2018-04-22T10:18:02.713Z,100200.45
2018-04-22T10:19:11.736Z,100197.89
2018-04-22T10:20:18.586Z,100188.34
2018-04-22T10:21:25.055Z,100190.77
2018-04-22T10:22:31.919Z,100192.48
2018-04-22T10:23:40.934Z,100188.08
2018-04-22T10:24:48.409Z,100185.95
2018-04-22T10:25:54.275Z,100184.53
2018-04-22T10:27:01.816Z,100191.28
2018-04-22T10:28:07.636Z,100184.43
2018-04-22T10:29:16.649Z,100186.09
2018-04-22T10:30:24.046Z,100187.34
2018-04-22T10:31:30.472Z,100184.48
2018-04-22T10:32:37.071Z,100184.48
2018-04-22T10:33:43.510Z,100179.50
2018-04-22T10:34:49.308Z,100178.80
2018-04-22T10:35:55.969Z,100182.63
2018-04-22T10:37:01.515Z,100175.47
2018-04-22T10:38:07.415Z,100176.58
2018-04-22T10:39:13.207Z,100175.36
2018-04-22T10:40:19.096Z,100167.66
2018-04-22T10:41:26.323Z,100166.44
2018-04-22T10:42:32.794Z,100163.84
2018-04-22T10:43:39.396Z,100156.89
2018-04-22T10:44:46.037Z,100149.66
2018-04-22T10:45:51.944Z,100156.48
2018-04-22T10:46:57.907Z,100149.42
2018-04-22T10:48:03.871Z,100151.67
2018-04-22T10:49:09.775Z,100146.52
2018-04-22T10:50:15.765Z,100142.82
2018-04-22T10:51:22.518Z,100145.30
2018-04-22T10:52:29.277Z,100143.63
2018-04-22T10:53:36.038Z,100139.86
2018-04-22T10:54:42.822Z,100139.80
2018-04-22T10:55:49.997Z,100139.23
2018-04-22T10:56:57.603Z,100136.63
2018-04-22T10:58:03.966Z,100134.07
2018-04-22T10:59:10.891Z,100133.06
2018-04-22T11:00:17.152Z,100131.19
2018-04-22T11:01:23.910Z,100130.93
2018-04-22T11:02:29.846Z,100129.38
2018-04-22T11:03:37.490Z,100125.28
2018-04-22T11:04:43.470Z,100127.06
2018-04-22T11:05:49.531Z,100128.45
2018-04-22T11:06:56.278Z,100123.66
2018-04-22T11:08:02.232Z,100125.16
2018-04-22T11:09:08.042Z,100127.81
2018-04-22T11:10:14.078Z,100122.42
2018-04-22T11:11:20.198Z,100117.59
2018-04-22T11:12:26.484Z,100120.55
2018-04-22T11:13:32.526Z,100118.46
2018-04-22T11:14:38.597Z,100119.66
2018-04-22T11:15:44.631Z,100111.30
2018-04-22T11:16:50.738Z,100112.17
2018-04-22T11:17:57.596Z,100115.70
2018-04-22T11:19:03.682Z,100111.49
2018-04-22T11:20:10.661Z,100108.70
2018-04-22T11:21:16.724Z,100109.48
2018-04-22T11:22:23.853Z,100106.39
2018-04-22T11:23:29.750Z,100105.46
2018-04-22T11:24:36.955Z,100107.04
2018-04-22T11:25:42.884Z,100107.39
2018-04-22T11:26:48.898Z,100097.56
2018-04-22T11:27:55.577Z,100098.84
2018-04-22T11:29:01.375Z,100103.83
2018-04-22T11:30:07.946Z,100101.73
2018-04-22T11:31:13.915Z,100105.80
2018-04-22T11:32:19.927Z,100096.46
2018-04-22T11:33:27.358Z,100093.15
2018-04-22T11:34:33.446Z,100098.08
2018-04-22T11:35:41.283Z,100099.05
2018-04-22T11:36:48.213Z,100097.58
2018-04-22T11:37:54.834Z,100096.10
2018-04-22T11:39:03.461Z,100096.19
2018-04-22T11:40:09.605Z,100093.92
2018-04-22T11:41:16.291Z,100092.49
2018-04-22T11:42:24.600Z,100087.23
2018-04-22T11:43:30.571Z,100093.56
2018-04-22T11:44:37.520Z,100086.62
2018-04-22T11:45:44.169Z,100089.83
2018-04-22T11:46:50.750Z,100085.95
2018-04-22T11:47:56.659Z,100080.83
2018-04-22T11:49:02.875Z,100086.66
2018-04-22T11:50:08.882Z,100083.78
2018-04-22T11:51:15.611Z,100085.64
2018-04-22T11:52:21.490Z,100084.05
2018-04-22T11:53:28.107Z,100077.28
2018-04-22T11:54:34.099Z,100078.29
2018-04-22T11:55:41.563Z,100078.53
2018-04-22T11:56:47.365Z,100084.84
2018-04-22T11:57:53.365Z,100083.01
2018-04-22T11:59:00.095Z,100078.66
2018-04-22T12:00:06.947Z,100076.95
2018-04-22T12:01:13.926Z,100074.76
2018-04-22T12:02:21.668Z,100074.83
2018-04-22T12:03:28.192Z,100071.30
2018-04-22T12:04:34.570Z,100071.27
2018-04-22T12:05:41.239Z,100069.34
2018-04-22T12:06:47.939Z,100075.35
2018-04-22T12:07:55.017Z,100071.53
2018-04-22T12:09:01.308Z,100067.44
2018-04-22T12:10:08.165Z,100071.11
2018-04-22T12:11:14.080Z,100069.59
2018-04-22T12:12:20.030Z,100069.61
2018-04-22T12:13:25.971Z,100068.51
2018-04-22T12:14:31.912Z,100064.37
2018-04-22T12:15:37.902Z,100059.61
2018-04-22T12:16:43.823Z,100064.98
2018-04-22T12:17:49.712Z,100058.98
2018-04-22T12:18:55.777Z,100060.20
2018-04-22T12:20:02.162Z,100050.52
2018-04-22T12:21:08.090Z,100051.84
2018-04-22T12:22:14.054Z,100052.26
2018-04-22T12:23:20.017Z,100050.22
2018-04-22T12:24:25.889Z,100044.13
2018-04-22T12:25:31.728Z,100045.31
2018-04-22T12:26:37.750Z,100042.66
2018-04-22T12:27:43.619Z,100045.81
2018-04-22T12:28:49.530Z,100050.75
2018-04-22T12:29:55.466Z,100046.45
2018-04-22T12:31:02.611Z,100050.23
2018-04-22T12:32:10.700Z,100047.98
2018-04-22T12:33:18.373Z,100043.91
2018-04-22T12:34:24.940Z,100043.02
2018-04-22T12:35:30.900Z,100043.57
2018-04-22T12:36:37.575Z,100044.84
2018-04-22T12:37:44.443Z,100046.09
2018-04-22T12:38:51.375Z,100035.81
2018-04-22T12:39:57.192Z,100040.75
2018-04-22T12:41:03.120Z,100044.67